Hovedside
METAR-TAF:

METAR-TAF

Lufthavner :

Billund lufthavn

Billund, Danmark

breddegrad: 55-44N, lengdegrad: 009-10E, høyde over havet: 75 m

Gjeldene værobservasjon

Denne rapporten ble laget for 14 minutter siden, klokken 15:20 UTC
Vind 5 kt fra Øst-nordøst, skiftende mellom Nord-nordøst og Øst-sørøst
Temperatur 19°C
Luftfuktighet 16%
Trykk 1031 hPa
Sikt 10 km eller mer

METAR: EKBI 201520Z AUTO 07005KT 030V120 9999 NCD 19/M07 Q1031

Tid: 17:34 (15:34 UTC)

Varsel

Denne rapporten ble laget for 4 timer og 16 minutter siden, klokken 11:18 UTC
Varsel gyldig fra 20. klokken 12 UTC til 21. klokken 12 UTC
Vind 5 kt fra Øst
Sikt 10 km eller mer
ingen skyer under 1500 m og ingen bygeskyer

TAF: EKBI 201118Z 2012/2112 08005KT CAVOK

Værobservasjoner og værvarsel for over 4000 flyplasser (METAR- og TAF-rapporter).

Tilgjengelige stasjoner er representert av de røde og gule prikkene på kartet.

Hold musepekeren over prikken for å se navnet på stasjonen.

Klikk så for å se værobservasjoner og -varsler.

For å forandre kartet kan du klikke på den grønne knappen med svart kryss for å zoome inn, på den grønne knappen med strek for å zoome ut, eller på de grønne pilene for å se tilstøtende kart.


METAR-TAF: